createdAt,value
2022-12-08T00:01:32.892Z,0.00
2022-12-08T00:04:03.041Z,0.00
2022-12-08T00:06:54.942Z,-0.10
2022-12-08T00:09:39.318Z,-0.10
2022-12-08T00:12:12.389Z,-0.10
2022-12-08T00:14:46.086Z,-0.10
2022-12-08T00:17:15.838Z,-0.10
2022-12-08T00:19:45.016Z,-0.10
2022-12-08T00:22:13.978Z,-0.10
2022-12-08T00:24:44.898Z,-0.10
2022-12-08T00:27:14.678Z,-0.10
2022-12-08T00:29:44.846Z,-0.10
2022-12-08T00:32:12.717Z,-0.20
2022-12-08T00:34:40.544Z,-0.20
2022-12-08T00:37:08.158Z,-0.20
2022-12-08T00:39:35.926Z,-0.20
2022-12-08T00:42:12.476Z,-0.20
2022-12-08T00:44:41.358Z,-0.20
2022-12-08T00:47:09.463Z,-0.20
2022-12-08T00:49:37.319Z,-0.20
2022-12-08T00:52:05.270Z,-0.20
2022-12-08T00:54:32.922Z,-0.20
2022-12-08T00:57:00.814Z,-0.20
2022-12-08T00:59:28.787Z,-0.20
2022-12-08T01:01:56.722Z,-0.20
2022-12-08T01:04:25.171Z,-0.20
2022-12-08T01:06:53.414Z,-0.20
2022-12-08T01:09:21.036Z,-0.10
2022-12-08T01:11:48.870Z,-0.10
2022-12-08T01:14:16.972Z,-0.20
2022-12-08T01:16:44.804Z,-0.10
2022-12-08T01:19:14.959Z,-0.20
2022-12-08T01:21:43.440Z,-0.20
2022-12-08T01:24:13.764Z,-0.20
2022-12-08T01:26:46.055Z,-0.20
2022-12-08T01:29:14.414Z,-0.10
2022-12-08T01:31:43.520Z,-0.10
2022-12-08T01:34:12.228Z,-0.10
2022-12-08T01:36:48.064Z,-0.20
2022-12-08T01:39:18.982Z,-0.20
2022-12-08T01:41:48.008Z,-0.10
2022-12-08T01:44:15.572Z,-0.10
2022-12-08T01:46:45.114Z,-0.10
2022-12-08T01:49:17.377Z,-0.10
2022-12-08T01:51:57.164Z,-0.10
2022-12-08T01:54:28.293Z,0.00
2022-12-08T01:57:00.457Z,-0.10
2022-12-08T01:59:29.761Z,-0.10
2022-12-08T02:01:58.200Z,-0.10
2022-12-08T02:04:25.817Z,-0.10
2022-12-08T02:06:54.789Z,0.00
2022-12-08T02:09:22.773Z,-0.10
2022-12-08T02:11:59.529Z,-0.10
2022-12-08T02:14:27.560Z,-0.10
2022-12-08T02:17:10.622Z,-0.10
2022-12-08T02:20:12.174Z,-0.10
2022-12-08T02:23:31.660Z,-0.20
2022-12-08T02:26:39.273Z,-0.20
2022-12-08T02:29:43.901Z,-0.20
2022-12-08T02:32:39.501Z,-0.20
2022-12-08T02:35:35.518Z,-0.20
2022-12-08T02:38:33.010Z,-0.20
2022-12-08T02:41:25.554Z,-0.20
2022-12-08T02:44:22.366Z,-0.10
2022-12-08T02:46:58.665Z,-0.20
2022-12-08T02:49:33.403Z,-0.10
2022-12-08T02:52:14.334Z,-0.20
2022-12-08T02:54:47.418Z,-0.20
2022-12-08T02:57:31.462Z,-0.20
2022-12-08T03:00:10.397Z,-0.20
2022-12-08T03:03:10.129Z,-0.20
2022-12-08T03:06:17.802Z,-0.30
2022-12-08T03:08:56.318Z,-0.30
2022-12-08T03:11:44.358Z,-0.30
2022-12-08T03:14:16.311Z,-0.30
2022-12-08T03:16:49.401Z,-0.30
2022-12-08T03:19:21.063Z,-0.40
2022-12-08T03:21:52.727Z,-0.40
2022-12-08T03:24:22.739Z,-0.40
2022-12-08T03:26:57.048Z,-0.40
2022-12-08T03:29:25.215Z,-0.40
2022-12-08T03:32:09.205Z,-0.50
2022-12-08T03:34:38.380Z,-0.50
2022-12-08T03:37:06.533Z,-0.50
2022-12-08T03:39:34.292Z,-0.60
2022-12-08T03:42:02.493Z,-0.60
2022-12-08T03:44:30.232Z,-0.60
2022-12-08T03:46:58.128Z,-0.60
2022-12-08T03:49:25.964Z,-0.50
2022-12-08T03:51:54.439Z,-0.50
2022-12-08T03:54:22.204Z,-0.50
2022-12-08T03:56:50.652Z,-0.50
2022-12-08T03:59:18.346Z,-0.50
2022-12-08T04:01:46.333Z,-0.40
2022-12-08T04:04:14.189Z,-0.50
2022-12-08T04:06:41.943Z,-0.30
2022-12-08T04:09:09.712Z,-0.50
2022-12-08T04:11:40.845Z,-0.50
2022-12-08T04:14:08.933Z,-0.50
2022-12-08T04:16:36.809Z,-0.50
2022-12-08T04:19:04.668Z,-0.50
2022-12-08T04:21:34.359Z,-0.40
2022-12-08T04:24:02.630Z,-0.40
2022-12-08T04:26:30.712Z,-0.50
2022-12-08T04:29:01.884Z,-0.50
2022-12-08T04:31:29.640Z,-0.50
2022-12-08T04:33:57.990Z,-0.50
2022-12-08T04:36:25.792Z,-0.50
2022-12-08T04:38:56.197Z,-0.60
2022-12-08T04:41:23.937Z,-0.60
2022-12-08T04:43:52.119Z,-0.70
2022-12-08T04:46:19.969Z,-0.70
2022-12-08T04:48:47.837Z,-0.70
2022-12-08T04:51:19.109Z,-0.70
2022-12-08T04:53:47.682Z,-0.80
2022-12-08T04:56:17.529Z,-0.70
2022-12-08T04:58:46.125Z,-0.80
2022-12-08T05:01:14.569Z,-0.80
2022-12-08T05:03:42.420Z,-0.90
2022-12-08T05:06:13.651Z,-0.90
2022-12-08T05:08:42.565Z,-0.90
2022-12-08T05:11:12.563Z,-0.80
2022-12-08T05:13:40.493Z,-0.80
2022-12-08T05:16:16.309Z,-0.80
2022-12-08T05:18:44.666Z,-0.80
2022-12-08T05:21:12.852Z,-0.80
2022-12-08T05:23:40.618Z,-0.70
2022-12-08T05:26:08.362Z,-0.80
2022-12-08T05:28:44.085Z,-0.80
2022-12-08T05:31:13.806Z,-0.70
2022-12-08T05:33:42.310Z,-0.80
2022-12-08T05:36:12.010Z,-0.70
2022-12-08T05:38:40.729Z,-0.70
2022-12-08T05:41:13.590Z,-0.80
2022-12-08T05:43:41.752Z,-0.70
2022-12-08T05:46:09.985Z,-0.70
2022-12-08T05:48:41.398Z,-0.80
2022-12-08T05:51:21.037Z,-0.80
2022-12-08T05:53:49.765Z,-0.80
2022-12-08T05:56:18.275Z,-0.90
2022-12-08T05:58:46.282Z,-0.90
2022-12-08T06:01:31.101Z,-0.90
2022-12-08T06:04:01.328Z,-0.90
2022-12-08T06:06:29.500Z,-1.00
2022-12-08T06:08:57.280Z,-1.00
2022-12-08T06:11:29.022Z,-1.00
2022-12-08T06:13:57.643Z,-1.00
2022-12-08T06:16:26.735Z,-1.00
2022-12-08T06:18:54.986Z,-1.00
2022-12-08T06:21:23.678Z,-1.00
2022-12-08T06:23:57.484Z,-1.00
2022-12-08T06:26:25.254Z,-1.10
2022-12-08T06:28:53.029Z,-1.20
2022-12-08T06:31:23.741Z,-1.20
2022-12-08T06:33:52.040Z,-1.20
2022-12-08T06:36:22.744Z,-1.10
2022-12-08T06:38:50.718Z,-1.10
2022-12-08T06:41:18.529Z,-1.10
2022-12-08T06:43:46.367Z,-1.30
2022-12-08T06:46:16.590Z,-1.30
2022-12-08T06:48:45.369Z,-1.20
2022-12-08T06:51:16.679Z,-1.10
2022-12-08T06:53:45.649Z,-1.10
2022-12-08T06:56:16.401Z,-1.10
2022-12-08T06:58:50.624Z,-1.30
2022-12-08T07:01:20.673Z,-1.40
2022-12-08T07:03:48.728Z,-1.40
2022-12-08T07:06:19.608Z,-1.30
2022-12-08T07:08:50.377Z,-1.30
2022-12-08T07:11:22.012Z,-1.20
2022-12-08T07:13:50.645Z,-1.20
2022-12-08T07:16:21.750Z,-1.40
2022-12-08T07:18:50.515Z,-1.30
2022-12-08T07:21:18.616Z,-1.30
2022-12-08T07:23:56.052Z,-1.20
2022-12-08T07:26:28.796Z,-1.10
2022-12-08T07:28:56.473Z,-1.30
2022-12-08T07:31:25.493Z,-1.30
2022-12-08T07:33:53.668Z,-1.30
2022-12-08T07:36:22.089Z,-1.10
2022-12-08T07:38:50.680Z,-1.10
2022-12-08T07:41:23.216Z,-0.90
2022-12-08T07:43:54.101Z,-0.90
2022-12-08T07:46:23.801Z,-0.80
2022-12-08T07:48:52.806Z,-0.90
2022-12-08T07:51:20.777Z,-0.90
2022-12-08T07:53:53.744Z,-0.80
2022-12-08T07:56:23.134Z,-0.80
2022-12-08T07:58:50.710Z,-0.60
2022-12-08T08:01:29.960Z,-0.50
2022-12-08T08:04:04.417Z,-0.40
2022-12-08T08:06:33.820Z,-0.30
2022-12-08T08:09:03.722Z,-0.50
2022-12-08T08:11:31.450Z,-0.60
2022-12-08T08:13:59.139Z,-0.60
2022-12-08T08:16:26.945Z,-0.60
2022-12-08T08:18:57.986Z,-0.50
2022-12-08T08:24:13.415Z,-0.30
2022-12-08T08:26:41.087Z,-0.20
2022-12-08T08:29:08.722Z,-0.10
2022-12-08T08:31:36.393Z,-0.10
2022-12-08T08:34:06.620Z,-0.10
2022-12-08T08:36:34.418Z,0.00
2022-12-08T08:39:04.615Z,0.10
2022-12-08T08:41:32.573Z,0.10
2022-12-08T08:44:00.341Z,0.20
2022-12-08T08:46:27.928Z,0.30
2022-12-08T08:48:56.007Z,0.30
2022-12-08T08:51:23.772Z,0.40
2022-12-08T08:53:51.243Z,0.40
2022-12-08T08:56:20.290Z,0.50
2022-12-08T08:58:49.519Z,0.50
2022-12-08T09:01:35.897Z,0.50
2022-12-08T09:04:03.557Z,0.60
2022-12-08T09:06:31.368Z,0.60
2022-12-08T09:08:58.932Z,0.70
2022-12-08T09:11:26.492Z,0.70
2022-12-08T09:13:54.777Z,0.80
2022-12-08T09:16:22.893Z,0.90
2022-12-08T09:18:51.523Z,0.90
2022-12-08T09:21:25.752Z,1.00
2022-12-08T09:23:56.155Z,1.10
2022-12-08T09:26:28.327Z,1.40
2022-12-08T09:28:56.901Z,2.20
2022-12-08T09:31:25.222Z,2.80
2022-12-08T09:33:52.959Z,2.90
2022-12-08T09:36:21.601Z,2.70
2022-12-08T09:38:51.681Z,2.50
2022-12-08T09:41:38.788Z,2.40
2022-12-08T09:44:49.269Z,3.10
2022-12-08T09:47:19.863Z,4.10
2022-12-08T09:50:00.328Z,3.70
2022-12-08T09:52:41.743Z,3.30
2022-12-08T09:55:21.852Z,3.00
2022-12-08T09:58:00.202Z,2.70
2022-12-08T10:00:30.518Z,2.60
2022-12-08T10:03:00.011Z,2.60
2022-12-08T10:05:32.073Z,2.50
2022-12-08T10:08:05.614Z,2.50
2022-12-08T10:10:43.616Z,2.60
2022-12-08T10:13:39.553Z,2.70
2022-12-08T10:16:38.459Z,2.80
2022-12-08T10:19:16.238Z,2.80
2022-12-08T10:21:44.031Z,2.90
2022-12-08T10:24:23.634Z,2.90
2022-12-08T10:26:51.448Z,2.90
2022-12-08T10:29:19.849Z,2.80
2022-12-08T10:31:47.681Z,2.90
2022-12-08T10:34:25.799Z,2.80
2022-12-08T10:36:59.157Z,2.90
2022-12-08T10:39:40.159Z,2.90
2022-12-08T10:42:21.609Z,3.00
2022-12-08T10:45:15.965Z,2.80
2022-12-08T10:47:52.310Z,2.90
2022-12-08T10:50:32.855Z,2.90
2022-12-08T10:53:15.569Z,3.00
2022-12-08T10:56:02.506Z,3.10
2022-12-08T10:58:36.630Z,3.20
2022-12-08T11:01:18.615Z,3.30
2022-12-08T11:03:59.911Z,3.40
2022-12-08T11:06:30.293Z,3.50
2022-12-08T11:09:03.179Z,3.40
2022-12-08T11:11:47.963Z,3.30
2022-12-08T11:14:30.836Z,3.20
2022-12-08T11:17:09.584Z,3.10
2022-12-08T11:19:39.386Z,3.10
2022-12-08T11:22:32.530Z,3.10
2022-12-08T11:25:16.346Z,3.20
2022-12-08T11:27:46.442Z,3.30
2022-12-08T11:30:15.606Z,3.40
2022-12-08T11:32:45.596Z,3.50
2022-12-08T11:35:37.244Z,3.60
2022-12-08T11:38:21.526Z,3.50
2022-12-08T11:40:55.598Z,3.60
2022-12-08T11:43:30.843Z,3.50
2022-12-08T11:46:17.846Z,3.50
2022-12-08T11:48:50.097Z,3.60
2022-12-08T11:51:33.458Z,3.70
2022-12-08T11:54:34.207Z,3.90
2022-12-08T11:57:05.156Z,3.90
2022-12-08T11:59:39.765Z,3.80
2022-12-08T12:02:23.123Z,3.90
2022-12-08T12:05:08.714Z,3.90
2022-12-08T12:07:55.647Z,4.20
2022-12-08T12:10:55.012Z,4.20
2022-12-08T12:13:52.442Z,4.20
2022-12-08T12:16:40.096Z,4.10
2022-12-08T12:19:17.858Z,4.20
2022-12-08T12:21:56.999Z,4.40
2022-12-08T12:24:32.825Z,4.60
2022-12-08T12:27:06.967Z,4.70
2022-12-08T12:29:38.895Z,4.90
2022-12-08T12:32:10.299Z,4.90
2022-12-08T12:34:56.063Z,4.90
2022-12-08T12:37:25.392Z,4.50
2022-12-08T12:39:52.939Z,4.40
2022-12-08T12:43:07.004Z,4.20
2022-12-08T12:45:34.983Z,4.10
2022-12-08T12:48:02.632Z,4.20
2022-12-08T12:50:33.400Z,4.30
2022-12-08T12:53:09.196Z,4.40
2022-12-08T12:55:45.893Z,4.20
2022-12-08T12:58:36.487Z,4.00
2022-12-08T13:01:13.702Z,4.00
2022-12-08T13:04:07.419Z,3.90
2022-12-08T13:06:42.021Z,3.90
2022-12-08T13:09:23.741Z,3.80
2022-12-08T13:11:57.152Z,3.90
2022-12-08T13:14:34.094Z,3.90
2022-12-08T13:17:04.929Z,3.90
2022-12-08T13:19:35.558Z,3.90
2022-12-08T13:22:44.901Z,3.90
2022-12-08T13:25:41.197Z,3.90
2022-12-08T13:28:22.107Z,3.80
2022-12-08T13:30:53.531Z,3.80
2022-12-08T13:33:24.137Z,3.70
2022-12-08T13:36:13.506Z,3.60
2022-12-08T13:38:44.381Z,3.60
2022-12-08T13:41:22.853Z,3.80
2022-12-08T13:44:56.697Z,3.80
2022-12-08T13:58:37.162Z,3.40
2022-12-08T14:01:18.795Z,3.30
2022-12-08T14:04:11.785Z,3.30
2022-12-08T14:06:37.601Z,3.20
2022-12-08T14:09:27.306Z,3.30
2022-12-08T14:11:59.391Z,3.30
2022-12-08T14:17:30.599Z,3.20
2022-12-08T14:20:00.924Z,3.20
2022-12-08T14:22:37.389Z,3.20
2022-12-08T14:25:07.299Z,3.10
2022-12-08T14:27:39.061Z,3.10
2022-12-08T14:30:09.252Z,3.00
2022-12-08T14:32:39.009Z,3.00
2022-12-08T14:35:09.809Z,2.90
2022-12-08T14:37:47.733Z,2.90
2022-12-08T14:40:22.714Z,2.90
2022-12-08T14:42:54.627Z,2.80
2022-12-08T14:45:22.305Z,2.70
2022-12-08T14:47:51.169Z,2.60
2022-12-08T14:50:39.591Z,2.40
2022-12-08T14:53:17.323Z,2.30
2022-12-08T14:55:47.979Z,2.30
2022-12-08T14:58:28.022Z,2.20
2022-12-08T15:01:01.372Z,2.20
2022-12-08T15:03:31.202Z,2.20
2022-12-08T15:06:03.620Z,2.10
2022-12-08T15:08:32.305Z,2.00
2022-12-08T15:11:30.576Z,1.90
2022-12-08T15:13:58.169Z,1.90
2022-12-08T15:16:32.667Z,1.90
2022-12-08T15:19:27.766Z,1.80
2022-12-08T15:22:12.173Z,1.70
2022-12-08T15:24:39.701Z,1.70
2022-12-08T15:27:07.417Z,1.60
2022-12-08T15:29:34.920Z,1.50
2022-12-08T15:32:02.632Z,1.50
2022-12-08T15:34:31.607Z,1.20
2022-12-08T15:36:59.276Z,1.00
2022-12-08T15:39:38.026Z,0.80
2022-12-08T15:42:12.718Z,0.70
2022-12-08T15:44:40.577Z,0.60
2022-12-08T15:47:20.448Z,0.50
2022-12-08T15:49:49.753Z,0.40
2022-12-08T15:52:23.188Z,0.40
2022-12-08T15:54:50.844Z,0.30
2022-12-08T16:00:51.042Z,0.20
2022-12-08T16:04:27.610Z,0.00
2022-12-08T16:09:38.587Z,-0.20
2022-12-08T16:12:25.660Z,-0.30
2022-12-08T16:17:42.121Z,-0.40
2022-12-08T16:20:14.917Z,-0.50
2022-12-08T16:23:13.025Z,-0.50
2022-12-08T16:25:46.037Z,-0.60
2022-12-08T16:28:52.092Z,-0.60
2022-12-08T16:31:11.646Z,-0.70
2022-12-08T16:33:41.722Z,-0.80
2022-12-08T16:36:10.218Z,-0.90
2022-12-08T16:38:38.063Z,-1.00
2022-12-08T16:41:24.457Z,-1.00
2022-12-08T16:43:53.150Z,-1.00
2022-12-08T16:46:25.977Z,-1.00
2022-12-08T16:48:54.267Z,-1.00
2022-12-08T16:51:27.109Z,-1.00
2022-12-08T16:53:56.987Z,-0.90
2022-12-08T16:56:32.165Z,-1.00
2022-12-08T16:59:02.144Z,-1.10
2022-12-08T17:01:30.511Z,-1.10
2022-12-08T17:04:29.992Z,-1.20
2022-12-08T17:06:46.362Z,-1.10
2022-12-08T17:09:14.270Z,-1.10
2022-12-08T17:11:43.654Z,-1.10
2022-12-08T17:14:15.469Z,-1.10
2022-12-08T17:16:43.613Z,-1.20
2022-12-08T17:19:16.073Z,-1.20
2022-12-08T17:21:44.899Z,-1.20
2022-12-08T17:24:15.818Z,-1.30
2022-12-08T17:26:46.410Z,-1.20
2022-12-08T17:29:14.738Z,-1.20
2022-12-08T17:31:42.549Z,-1.10
2022-12-08T17:34:11.695Z,-1.40
2022-12-08T17:36:40.991Z,-1.40
2022-12-08T17:39:13.380Z,-1.60
2022-12-08T17:41:44.244Z,-1.70
2022-12-08T17:44:15.492Z,-1.70
2022-12-08T17:46:49.083Z,-1.70
2022-12-08T17:49:26.028Z,-1.60
2022-12-08T17:51:56.142Z,-1.60
2022-12-08T17:54:24.317Z,-1.70
2022-12-08T17:56:52.905Z,-1.70
2022-12-08T17:59:20.779Z,-1.70
2022-12-08T18:01:48.513Z,-1.90
2022-12-08T18:04:16.301Z,-1.80
2022-12-08T18:06:44.300Z,-1.70
2022-12-08T18:09:12.221Z,-1.60
2022-12-08T18:11:40.092Z,-1.60
2022-12-08T18:14:11.542Z,-1.70
2022-12-08T18:16:42.283Z,-1.70
2022-12-08T18:19:11.504Z,-1.70
2022-12-08T18:21:40.536Z,-1.70
2022-12-08T18:24:14.109Z,-1.80
2022-12-08T18:26:42.066Z,-1.80
2022-12-08T18:29:10.301Z,-1.80
2022-12-08T18:31:38.001Z,-1.70
2022-12-08T18:34:08.294Z,-1.80
2022-12-08T18:36:39.336Z,-1.80
2022-12-08T18:39:10.709Z,-1.80
2022-12-08T18:41:38.785Z,-1.80
2022-12-08T18:44:06.436Z,-1.80
2022-12-08T18:46:34.172Z,-1.80
2022-12-08T18:49:01.795Z,-1.90
2022-12-08T18:51:29.549Z,-2.00
2022-12-08T18:53:59.062Z,-2.10
2022-12-08T18:56:34.298Z,-2.00
2022-12-08T18:59:05.593Z,-2.00
2022-12-08T19:01:36.327Z,-2.00
2022-12-08T19:06:53.695Z,-2.00
2022-12-08T19:09:27.059Z,-2.00
2022-12-08T19:11:56.057Z,-2.00
2022-12-08T19:14:28.522Z,-2.10
2022-12-08T19:17:02.541Z,-2.20
2022-12-08T19:19:31.026Z,-2.20
2022-12-08T19:21:58.683Z,-2.30
2022-12-08T19:24:26.854Z,-2.30
2022-12-08T19:26:54.934Z,-2.30
2022-12-08T19:29:25.398Z,-2.20
2022-12-08T19:31:52.958Z,-2.20
2022-12-08T19:34:20.578Z,-2.10
2022-12-08T19:36:48.222Z,-2.20
2022-12-08T19:39:39.868Z,-2.00
2022-12-08T19:42:37.521Z,-2.10
2022-12-08T19:45:17.767Z,-2.10
2022-12-08T19:47:45.320Z,-2.10
2022-12-08T19:50:33.246Z,-2.20
2022-12-08T19:53:01.632Z,-2.10
2022-12-08T19:55:29.900Z,-2.10
2022-12-08T19:57:58.501Z,-2.10
2022-12-08T20:00:26.582Z,-2.20
2022-12-08T20:02:54.501Z,-2.30
2022-12-08T20:05:22.497Z,-2.30
2022-12-08T20:07:50.636Z,-2.40
2022-12-08T20:10:23.570Z,-2.40
2022-12-08T20:12:51.112Z,-2.40
2022-12-08T20:15:19.275Z,-2.40
2022-12-08T20:17:46.800Z,-2.40
2022-12-08T20:20:15.075Z,-2.30
2022-12-08T20:22:42.979Z,-2.40
2022-12-08T20:25:12.961Z,-2.30
2022-12-08T20:27:42.515Z,-2.40
2022-12-08T20:30:16.496Z,-2.50
2022-12-08T20:32:45.330Z,-2.40
2022-12-08T20:35:13.180Z,-2.30
2022-12-08T20:37:40.996Z,-2.20
2022-12-08T20:40:09.290Z,-2.30
2022-12-08T20:42:36.778Z,-2.70
2022-12-08T20:45:07.230Z,-3.00
2022-12-08T20:47:35.660Z,-3.10
2022-12-08T20:50:07.275Z,-3.00
2022-12-08T20:52:37.889Z,-2.90
2022-12-08T20:55:06.979Z,-2.80
2022-12-08T20:57:35.056Z,-2.80
2022-12-08T21:00:04.368Z,-2.80
2022-12-08T21:02:32.957Z,-2.70
2022-12-08T21:05:00.826Z,-2.60
2022-12-08T21:07:28.701Z,-2.70
2022-12-08T21:09:56.338Z,-2.70
2022-12-08T21:12:27.215Z,-2.80
2022-12-08T21:14:55.157Z,-2.80
2022-12-08T21:17:22.920Z,-2.90
2022-12-08T21:19:50.761Z,-3.00
2022-12-08T21:22:18.484Z,-3.00
2022-12-08T21:24:46.339Z,-2.90
2022-12-08T21:27:14.351Z,-2.90
2022-12-08T21:29:41.979Z,-2.80
2022-12-08T21:32:09.806Z,-2.80
2022-12-08T21:34:37.670Z,-2.80
2022-12-08T21:37:05.571Z,-2.90
2022-12-08T21:39:33.354Z,-3.00
2022-12-08T21:42:22.743Z,-3.00
2022-12-08T21:44:50.896Z,-2.90
2022-12-08T21:47:18.707Z,-2.80
2022-12-08T21:49:46.801Z,-2.80
2022-12-08T21:52:14.594Z,-2.80
2022-12-08T21:54:42.530Z,-3.00
2022-12-08T21:57:10.285Z,-3.00
2022-12-08T21:59:38.126Z,-3.20
2022-12-08T22:02:08.366Z,-3.30
2022-12-08T22:04:36.219Z,-3.30
2022-12-08T22:07:03.987Z,-3.20
2022-12-08T22:09:32.034Z,-3.10
2022-12-08T22:11:59.992Z,-3.10
2022-12-08T22:14:27.784Z,-3.20
2022-12-08T22:16:55.335Z,-3.10
2022-12-08T22:19:25.444Z,-3.20
2022-12-08T22:21:53.190Z,-3.10
2022-12-08T22:24:21.028Z,-3.10
2022-12-08T22:26:48.731Z,-3.40
2022-12-08T22:29:16.748Z,-3.50
2022-12-08T22:31:44.681Z,-3.40
2022-12-08T22:34:12.406Z,-3.20
2022-12-08T22:36:42.308Z,-3.10
2022-12-08T22:39:10.472Z,-3.00
2022-12-08T22:41:38.266Z,-2.90
2022-12-08T22:44:07.014Z,-2.90
2022-12-08T22:46:38.572Z,-3.00
2022-12-08T22:49:06.133Z,-3.00
2022-12-08T22:51:37.693Z,-3.00
2022-12-08T22:54:06.029Z,-3.00
2022-12-08T22:56:33.610Z,-3.00
2022-12-08T22:59:01.108Z,-3.00
2022-12-08T23:01:31.791Z,-3.00
2022-12-08T23:04:01.307Z,-2.90
2022-12-08T23:06:30.321Z,-2.90
2022-12-08T23:08:59.598Z,-2.90
2022-12-08T23:11:37.569Z,-2.90
2022-12-08T23:14:05.285Z,-2.80
2022-12-08T23:16:33.530Z,-2.50
2022-12-08T23:19:01.325Z,-2.40
2022-12-08T23:21:29.754Z,-2.40
2022-12-08T23:23:57.739Z,-2.50
2022-12-08T23:26:31.761Z,-2.50
2022-12-08T23:29:21.455Z,-2.80
2022-12-08T23:31:49.527Z,-3.10
2022-12-08T23:34:17.458Z,-3.10
2022-12-08T23:36:45.421Z,-3.10
2022-12-08T23:39:13.232Z,-3.10
2022-12-08T23:41:43.964Z,-3.00
2022-12-08T23:44:12.388Z,-3.20
2022-12-08T23:46:40.437Z,-3.20
2022-12-08T23:49:08.081Z,-3.10
2022-12-08T23:51:35.833Z,-3.10
2022-12-08T23:54:06.573Z,-3.00
2022-12-08T23:56:40.810Z,-2.90
2022-12-08T23:59:09.100Z,-2.90
